Time;durP1;ratioP1;P1;durP2;ratioP2;P2;SDS_P1;SDS_P2;PMS_P1;PMS_P2;Temp;Humidity;BMP_temperature;BMP_pressure;BME280_temperature;BME280_humidity;BME280_pressure;Samples;Min_cycle;Max_cycle;Signal;HPM_P1;HPM_P2
2023/10/06 00:00:19;;;;;;;;;;;14.20;97.00;;;;;;5104595;28;19911;-71
2023/10/06 00:02:45;;;;;;;;;;;14.20;97.00;;;;;;5102961;28;19982;-71
2023/10/06 00:05:13;;;;;;;;;;;14.20;97.00;;;;;;5099974;28;19918;-71
2023/10/06 00:07:40;;;;;;;;;;;14.20;97.00;;;;;;5097110;28;19973;-71
2023/10/06 00:10:14;;;;;;;;;;;14.20;97.00;;;;;;5093945;28;19925;-71
2023/10/06 00:12:39;;;;;;;;;;;14.20;97.00;;;;;;5110743;28;19917;-71
2023/10/06 00:15:09;;;;;;;;;;;14.20;97.00;;;;;;5092379;28;19908;-71
2023/10/06 00:17:35;;;;;;;;;;;14.10;97.00;;;;;;5126006;27;19916;-71
2023/10/06 00:20:00;;;;;;;;;;;14.10;97.00;;;;;;5100685;28;20372;-71
2023/10/06 00:22:26;;;;;;;;;;;14.20;97.10;;;;;;5109294;28;19964;-71
2023/10/06 00:24:55;;;;;;;;;;;14.20;97.10;;;;;;5102594;28;20312;-71
2023/10/06 00:27:24;;;;;;;;;;;14.10;97.00;;;;;;5092100;28;19981;-71
2023/10/06 00:29:56;;;;;;;;;;;14.10;97.30;;;;;;5100802;28;19916;-71
2023/10/06 00:32:22;;;;;;;;;;;14.10;97.10;;;;;;5102042;27;19918;-71
2023/10/06 00:34:48;;;;;;;;;;;14.10;97.10;;;;;;5093961;28;19912;-71
2023/10/06 00:37:22;;;;;;;;;;;14.10;97.00;;;;;;5092623;28;19908;-71
2023/10/06 00:39:50;;;;;;;;;;;14.10;97.00;;;;;;5100723;28;19951;-71
2023/10/06 00:42:17;;;;;;;;;;;14.10;97.00;;;;;;5090549;28;19916;-71
2023/10/06 00:44:45;;;;;;;;;;;14.10;97.00;;;;;;5097793;28;19915;-71
2023/10/06 00:47:11;;;;;;;;;;;14.10;97.00;;;;;;5106473;28;20007;-71
2023/10/06 00:49:36;;;;;;;;;;;14.10;97.00;;;;;;5088495;28;19999;-71
2023/10/06 00:52:06;;;;;;;;;;;14.10;97.00;;;;;;5090660;28;19912;-71
2023/10/06 00:54:32;;;;;;;;;;;14.10;97.00;;;;;;5105105;28;19912;-71
2023/10/06 00:57:08;;;;;;;;;;;14.10;97.10;;;;;;5098149;28;19912;-71
2023/10/06 00:59:37;;;;;;;;;;;14.10;97.10;;;;;;5101350;28;19919;-71
2023/10/06 01:02:03;;;;;;;;;;;14.10;97.10;;;;;;5101578;28;19991;-71
2023/10/06 01:04:34;;;;;;;;;;;14.00;97.00;;;;;;5103557;28;19915;-71
2023/10/06 01:07:00;;;;;;;;;;;14.00;97.10;;;;;;5109744;28;19911;-71
2023/10/06 01:09:34;;;;;;;;;;;14.00;97.10;;;;;;5101450;28;20027;-71
2023/10/06 01:12:04;;;;;;;;;;;14.00;97.00;;;;;;5109315;28;19912;-71
2023/10/06 01:14:34;;;;;;;;;;;14.00;97.10;;;;;;5102720;28;19912;-71
2023/10/06 01:19:54;;;;;;;;;;;14.00;97.00;;;;;;5076030;28;19908;-71
2023/10/06 01:24:55;;;;;;;;;;;14.00;97.10;;;;;;5093161;28;19908;-71
2023/10/06 01:27:26;;;;;;;;;;;14.00;97.10;;;;;;5095739;28;19924;-71
2023/10/06 01:30:09;;;;;;;;;;;14.00;97.10;;;;;;5088998;28;19916;-71
2023/10/06 01:32:41;;;;;;;;;;;14.00;97.10;;;;;;5088625;28;19960;-71
2023/10/06 01:35:12;;;;;;;;;;;14.00;97.10;;;;;;5097468;28;19964;-71
2023/10/06 01:37:39;;;;;;;;;;;14.00;97.10;;;;;;5101989;28;19956;-71
2023/10/06 01:40:15;;;;;;;;;;;14.00;97.10;;;;;;5099664;28;19919;-71
2023/10/06 01:42:41;;;;;;;;;;;14.00;97.10;;;;;;5093996;28;19908;-71
2023/10/06 01:45:14;;;;;;;;;;;14.00;97.10;;;;;;5109406;28;19908;-71
2023/10/06 01:47:40;;;;;;;;;;;13.90;97.10;;;;;;5097972;28;20015;-71
2023/10/06 01:50:05;;;;;;;;;;;13.90;97.10;;;;;;5113144;28;20393;-71
2023/10/06 01:52:31;;;;;;;;;;;13.90;97.10;;;;;;5113413;28;19912;-71
2023/10/06 01:55:01;;;;;;;;;;;13.90;97.10;;;;;;5113015;28;19908;-71
2023/10/06 01:57:26;;;;;;;;;;;13.90;97.10;;;;;;5088186;28;19918;-71
2023/10/06 01:59:52;;;;;;;;;;;13.90;97.10;;;;;;5103470;28;19933;-71
2023/10/06 02:02:23;;;;;;;;;;;13.90;97.10;;;;;;5104547;28;19923;-71
2023/10/06 02:04:49;;;;;;;;;;;13.90;97.00;;;;;;5106359;28;19911;-71
2023/10/06 02:07:14;;;;;;;;;;;13.90;97.10;;;;;;5102169;28;20023;-71
2023/10/06 02:09:40;;;;;;;;;;;13.90;97.10;;;;;;5099341;28;19912;-71
2023/10/06 02:12:06;;;;;;;;;;;13.90;97.10;;;;;;5092511;28;20373;-71
2023/10/06 02:14:31;;;;;;;;;;;13.90;97.10;;;;;;5105291;28;19908;-71
2023/10/06 02:17:04;;;;;;;;;;;13.90;97.10;;;;;;5103444;27;19912;-71
2023/10/06 02:19:32;;;;;;;;;;;13.90;97.10;;;;;;5104942;28;20493;-71
2023/10/06 02:21:58;;;;;;;;;;;13.90;97.10;;;;;;5108769;28;19941;-71
2023/10/06 02:24:23;;;;;;;;;;;13.90;97.10;;;;;;5104195;28;20361;-71
2023/10/06 02:26:57;;;;;;;;;;;13.90;97.10;;;;;;5107268;28;19920;-71
2023/10/06 02:29:23;;;;;;;;;;;13.90;97.10;;;;;;5090335;28;20428;-71
2023/10/06 02:31:52;;;;;;;;;;;13.80;97.00;;;;;;5099222;28;20015;-71
2023/10/06 02:34:29;;;;;;;;;;;13.90;97.10;;;;;;5095088;28;19912;-71
2023/10/06 02:36:55;;;;;;;;;;;13.90;97.10;;;;;;5112668;28;19908;-71
2023/10/06 02:39:21;;;;;;;;;;;13.90;97.10;;;;;;5095480;28;19915;-71
2023/10/06 02:41:47;;;;;;;;;;;13.80;97.00;;;;;;5104156;28;19908;-71
2023/10/06 02:44:19;;;;;;;;;;;13.90;97.10;;;;;;5093647;28;20007;-71
2023/10/06 02:46:44;;;;;;;;;;;13.80;97.00;;;;;;5112692;28;19907;-71
2023/10/06 02:49:13;;;;;;;;;;;13.90;97.10;;;;;;5100192;28;19939;-71
2023/10/06 02:51:47;;;;;;;;;;;13.80;96.90;;;;;;5092232;28;19912;-71
2023/10/06 02:56:44;;;;;;;;;;;13.80;97.10;;;;;;5090864;28;19908;-71
2023/10/06 02:59:21;;;;;;;;;;;13.80;97.00;;;;;;5101761;28;19922;-71
2023/10/06 03:01:51;;;;;;;;;;;13.80;97.10;;;;;;5095531;28;19920;-71
2023/10/06 03:04:17;;;;;;;;;;;13.80;97.00;;;;;;5102497;28;19995;-71
2023/10/06 03:06:52;;;;;;;;;;;13.80;97.10;;;;;;5103889;28;20678;-71
2023/10/06 03:09:18;;;;;;;;;;;13.80;97.10;;;;;;5092494;28;21505;-71
2023/10/06 03:11:49;;;;;;;;;;;13.80;97.10;;;;;;5099966;28;19912;-71
2023/10/06 03:14:23;;;;;;;;;;;13.80;97.10;;;;;;5102137;28;19946;-71
2023/10/06 03:16:51;;;;;;;;;;;13.80;97.10;;;;;;5104892;28;19912;-71
2023/10/06 03:19:19;;;;;;;;;;;13.70;97.00;;;;;;5099170;28;19908;-71
2023/10/06 03:21:45;;;;;;;;;;;13.80;97.10;;;;;;5103158;28;19916;-71
2023/10/06 03:24:19;;;;;;;;;;;13.80;97.00;;;;;;5109358;28;19908;-71
2023/10/06 03:26:46;;;;;;;;;;;13.70;97.10;;;;;;5093764;28;19958;-71
2023/10/06 03:29:25;;;;;;;;;;;13.70;97.00;;;;;;5109395;28;19918;-71
2023/10/06 03:31:50;;;;;;;;;;;13.80;97.10;;;;;;5089869;28;19937;-71
2023/10/06 03:34:16;;;;;;;;;;;13.70;97.10;;;;;;5098835;28;19908;-71
2023/10/06 03:36:51;;;;;;;;;;;13.70;97.10;;;;;;5097153;28;19912;-71
2023/10/06 03:39:27;;;;;;;;;;;13.70;97.10;;;;;;5100028;28;19962;-71
2023/10/06 03:41:53;;;;;;;;;;;13.70;97.00;;;;;;5098371;28;19916;-71
2023/10/06 03:44:26;;;;;;;;;;;13.70;97.10;;;;;;5109212;28;19951;-71
2023/10/06 03:46:53;;;;;;;;;;;13.70;97.00;;;;;;5111216;28;19919;-71
2023/10/06 03:49:18;;;;;;;;;;;13.70;97.10;;;;;;5099830;28;19916;-71
2023/10/06 03:51:44;;;;;;;;;;;13.70;97.10;;;;;;5097205;28;19908;-71
2023/10/06 03:54:10;;;;;;;;;;;13.70;97.10;;;;;;5108919;27;19911;-71
2023/10/06 03:56:36;;;;;;;;;;;13.70;97.10;;;;;;5090748;28;19916;-71
2023/10/06 03:59:02;;;;;;;;;;;13.70;97.00;;;;;;5097619;28;19915;-71
2023/10/06 04:01:31;;;;;;;;;;;13.70;97.10;;;;;;5098196;28;19971;-71
2023/10/06 04:04:00;;;;;;;;;;;13.70;97.10;;;;;;5091786;28;19916;-71
2023/10/06 04:06:26;;;;;;;;;;;13.70;97.10;;;;;;5091297;28;19918;-71
2023/10/06 04:08:57;;;;;;;;;;;13.70;97.10;;;;;;5094595;28;19916;-71
2023/10/06 04:11:22;;;;;;;;;;;13.60;97.10;;;;;;5101464;28;20013;-71
2023/10/06 04:13:48;;;;;;;;;;;13.60;97.00;;;;;;5095389;28;20060;-71
2023/10/06 04:16:14;;;;;;;;;;;13.60;97.00;;;;;;5109053;28;19907;-71
2023/10/06 04:18:40;;;;;;;;;;;13.60;97.10;;;;;;5107813;27;19916;-71
2023/10/06 04:21:11;;;;;;;;;;;13.60;97.10;;;;;;5110141;28;19908;-71
2023/10/06 04:23:41;;;;;;;;;;;13.60;97.10;;;;;;5102187;28;19908;-71
2023/10/06 04:26:11;;;;;;;;;;;13.60;97.00;;;;;;5092218;28;20268;-71
2023/10/06 04:28:37;;;;;;;;;;;13.60;97.10;;;;;;5092904;28;20320;-71
2023/10/06 04:31:05;;;;;;;;;;;13.60;97.00;;;;;;5110213;28;20421;-71
2023/10/06 04:33:31;;;;;;;;;;;13.60;97.10;;;;;;5106117;28;19912;-71
2023/10/06 04:35:59;;;;;;;;;;;13.60;97.00;;;;;;5106014;28;19908;-71
2023/10/06 04:38:27;;;;;;;;;;;13.60;97.10;;;;;;5085424;28;20249;-71
2023/10/06 04:40:52;;;;;;;;;;;13.60;97.00;;;;;;5110218;27;19915;-71
2023/10/06 04:43:18;;;;;;;;;;;13.60;97.10;;;;;;5101316;28;19919;-71
2023/10/06 04:45:47;;;;;;;;;;;13.50;96.90;;;;;;5108856;28;19914;-71
2023/10/06 04:48:14;;;;;;;;;;;13.60;97.00;;;;;;5107037;28;19918;-71
2023/10/06 04:50:42;;;;;;;;;;;13.50;97.00;;;;;;5101200;28;19943;-71
2023/10/06 04:53:08;;;;;;;;;;;13.60;97.00;;;;;;5099829;28;19908;-71
2023/10/06 04:55:39;;;;;;;;;;;13.60;97.00;;;;;;5104999;28;20351;-71
2023/10/06 04:58:07;;;;;;;;;;;13.50;97.00;;;;;;5096624;28;19919;-71
2023/10/06 05:00:33;;;;;;;;;;;13.50;97.00;;;;;;5096564;28;20396;-71
2023/10/06 05:02:59;;;;;;;;;;;13.50;97.00;;;;;;5089395;28;19998;-71
2023/10/06 05:05:26;;;;;;;;;;;13.50;97.00;;;;;;5100124;28;19916;-71
2023/10/06 05:07:53;;;;;;;;;;;13.50;97.00;;;;;;5109518;28;19973;-71
2023/10/06 05:10:21;;;;;;;;;;;13.50;97.00;;;;;;5099381;28;19912;-69
2023/10/06 05:12:49;;;;;;;;;;;13.50;97.00;;;;;;5109513;28;19946;-68
2023/10/06 05:15:23;;;;;;;;;;;13.50;97.00;;;;;;5099939;28;20372;-68
2023/10/06 05:17:55;;;;;;;;;;;13.50;97.00;;;;;;5108210;28;19964;-68
2023/10/06 05:20:30;;;;;;;;;;;13.50;97.00;;;;;;5105067;28;21114;-68
2023/10/06 05:22:58;;;;;;;;;;;13.50;97.00;;;;;;5096860;28;20607;-68
2023/10/06 05:25:25;;;;;;;;;;;13.50;97.00;;;;;;5095632;28;19939;-68
2023/10/06 05:27:51;;;;;;;;;;;13.50;97.00;;;;;;5103935;28;19916;-68
2023/10/06 05:30:17;;;;;;;;;;;13.50;97.00;;;;;;5108833;28;19918;-68
2023/10/06 05:32:43;;;;;;;;;;;13.50;97.00;;;;;;5093549;28;19919;-68
2023/10/06 05:35:10;;;;;;;;;;;13.50;97.00;;;;;;5097805;28;19947;-68
2023/10/06 05:37:36;;;;;;;;;;;13.50;97.00;;;;;;5100650;28;19912;-68
2023/10/06 05:40:02;;;;;;;;;;;13.50;97.00;;;;;;5100470;28;19913;-68
2023/10/06 05:42:27;;;;;;;;;;;13.40;96.90;;;;;;5096215;28;20372;-68
2023/10/06 05:44:53;;;;;;;;;;;13.50;97.00;;;;;;5102773;28;19947;-68
2023/10/06 05:47:19;;;;;;;;;;;13.50;97.20;;;;;;5098729;28;19913;-68
2023/10/06 05:49:47;;;;;;;;;;;13.50;97.00;;;;;;5092298;28;19923;-68
2023/10/06 05:52:13;;;;;;;;;;;13.50;97.00;;;;;;5089431;28;19920;-68
2023/10/06 05:54:39;;;;;;;;;;;13.50;97.00;;;;;;5089421;28;19908;-68
2023/10/06 05:57:04;;;;;;;;;;;13.50;97.00;;;;;;5097419;28;20272;-68
2023/10/06 05:59:33;;;;;;;;;;;13.50;97.00;;;;;;5098897;28;19919;-68
2023/10/06 06:02:00;;;;;;;;;;;13.50;97.00;;;;;;5096477;28;20001;-68
2023/10/06 06:04:30;;;;;;;;;;;13.50;97.00;;;;;;5089294;28;20018;-68
2023/10/06 06:07:02;;;;;;;;;;;13.50;97.00;;;;;;5104498;28;19912;-68
2023/10/06 06:09:28;;;;;;;;;;;13.50;97.00;;;;;;5105212;28;19923;-68
2023/10/06 06:11:53;;;;;;;;;;;13.40;96.90;;;;;;5094647;28;19912;-68
2023/10/06 06:14:21;;;;;;;;;;;13.40;96.90;;;;;;5096366;28;19961;-68
2023/10/06 06:16:50;;;;;;;;;;;13.50;97.00;;;;;;5092685;28;19991;-68
2023/10/06 06:19:16;;;;;;;;;;;13.50;97.00;;;;;;5092967;28;19922;-68
2023/10/06 06:21:42;;;;;;;;;;;13.50;97.00;;;;;;5091741;28;19908;-68
2023/10/06 06:24:08;;;;;;;;;;;13.50;97.00;;;;;;5088077;28;19912;-68
2023/10/06 06:26:37;;;;;;;;;;;13.50;97.00;;;;;;5091926;28;20000;-68
2023/10/06 06:29:03;;;;;;;;;;;13.50;97.00;;;;;;5088354;28;19916;-68
2023/10/06 06:31:32;;;;;;;;;;;13.50;96.90;;;;;;5091890;28;20363;-68
2023/10/06 06:34:04;;;;;;;;;;;13.50;96.90;;;;;;5091612;28;19916;-69
2023/10/06 06:36:31;;;;;;;;;;;13.50;96.90;;;;;;5091677;28;20002;-69
2023/10/06 06:38:58;;;;;;;;;;;13.50;96.80;;;;;;5094682;28;20386;-68
2023/10/06 06:41:24;;;;;;;;;;;13.50;96.80;;;;;;5093027;28;20360;-68
2023/10/06 06:43:54;;;;;;;;;;;13.50;96.80;;;;;;5093758;28;20385;-68
2023/10/06 06:46:20;;;;;;;;;;;13.50;96.80;;;;;;5091441;28;20415;-68
2023/10/06 06:48:46;;;;;;;;;;;13.50;96.80;;;;;;5090550;28;19995;-68
2023/10/06 06:51:12;;;;;;;;;;;13.50;96.90;;;;;;5094262;28;20030;-68
2023/10/06 06:53:39;;;;;;;;;;;13.50;96.90;;;;;;5093929;28;20443;-68
2023/10/06 06:56:05;;;;;;;;;;;13.50;96.90;;;;;;5090814;28;20392;-68
2023/10/06 06:58:32;;;;;;;;;;;13.60;96.90;;;;;;5090946;28;20368;-68
2023/10/06 07:00:58;;;;;;;;;;;13.60;96.90;;;;;;5096810;28;19969;-68
2023/10/06 07:03:24;;;;;;;;;;;13.60;96.80;;;;;;5090817;28;19916;-68
2023/10/06 07:05:50;;;;;;;;;;;13.60;96.80;;;;;;5091016;28;19942;-68
2023/10/06 07:08:16;;;;;;;;;;;13.60;96.80;;;;;;5089793;28;20374;-68
2023/10/06 07:10:52;;;;;;;;;;;13.60;96.80;;;;;;5090585;28;20006;-68
2023/10/06 07:13:24;;;;;;;;;;;13.60;96.80;;;;;;5092473;28;19919;-68
2023/10/06 07:15:49;;;;;;;;;;;13.70;96.80;;;;;;5085627;28;19908;-68
2023/10/06 07:18:15;;;;;;;;;;;13.70;96.70;;;;;;5094822;28;19912;-68
2023/10/06 07:20:41;;;;;;;;;;;13.70;96.70;;;;;;5106081;28;19912;-68
2023/10/06 07:23:07;;;;;;;;;;;13.70;96.70;;;;;;5107096;28;20368;-67
2023/10/06 07:25:32;;;;;;;;;;;13.70;96.70;;;;;;5096400;28;19912;-67
2023/10/06 07:27:58;;;;;;;;;;;13.70;96.70;;;;;;5092053;28;19988;-67
2023/10/06 07:30:26;;;;;;;;;;;13.70;96.70;;;;;;5095732;28;20284;-68
2023/10/06 07:32:52;;;;;;;;;;;13.80;96.70;;;;;;5093098;28;19935;-68
2023/10/06 07:35:19;;;;;;;;;;;13.80;96.70;;;;;;5123204;27;19920;-68
2023/10/06 07:37:45;;;;;;;;;;;13.80;96.70;;;;;;5092151;28;19916;-68
2023/10/06 07:40:14;;;;;;;;;;;13.80;96.70;;;;;;5093565;28;20340;-68
2023/10/06 07:42:44;;;;;;;;;;;13.80;96.70;;;;;;5126527;27;19911;-68
2023/10/06 07:45:10;;;;;;;;;;;13.80;96.70;;;;;;5110484;28;19912;-68
2023/10/06 07:47:36;;;;;;;;;;;13.80;96.70;;;;;;5102290;28;20044;-68
2023/10/06 07:50:04;;;;;;;;;;;13.90;96.60;;;;;;5091416;28;19912;-68
2023/10/06 07:52:31;;;;;;;;;;;13.90;96.60;;;;;;5090893;28;19919;-68
2023/10/06 07:54:56;;;;;;;;;;;13.90;96.60;;;;;;5091300;28;19912;-68
2023/10/06 07:57:22;;;;;;;;;;;13.90;96.70;;;;;;5092954;28;19918;-68
2023/10/06 07:59:47;;;;;;;;;;;14.00;96.70;;;;;;5090348;28;20460;-68
2023/10/06 08:02:13;;;;;;;;;;;14.00;96.60;;;;;;5089482;28;20007;-68
2023/10/06 08:04:38;;;;;;;;;;;14.00;96.50;;;;;;5093727;28;19976;-68
2023/10/06 08:07:05;;;;;;;;;;;14.00;96.60;;;;;;5090618;28;20391;-68
2023/10/06 08:09:32;;;;;;;;;;;14.00;96.50;;;;;;5099548;28;19923;-68
2023/10/06 08:11:58;;;;;;;;;;;14.10;96.50;;;;;;5090959;28;19913;-68
2023/10/06 08:14:24;;;;;;;;;;;14.00;96.60;;;;;;5090240;28;20376;-68
2023/10/06 08:16:50;;;;;;;;;;;14.10;96.50;;;;;;5090845;28;19953;-68
2023/10/06 08:19:16;;;;;;;;;;;14.00;96.50;;;;;;5092625;28;19912;-68
2023/10/06 08:21:41;;;;;;;;;;;14.10;96.50;;;;;;5092409;28;19930;-68
2023/10/06 08:24:07;;;;;;;;;;;14.00;96.50;;;;;;5093182;28;20280;-68
2023/10/06 08:26:36;;;;;;;;;;;14.10;96.50;;;;;;5090494;28;20014;-68
2023/10/06 08:29:04;;;;;;;;;;;14.10;96.50;;;;;;5096632;28;20087;-68
2023/10/06 08:31:30;;;;;;;;;;;14.10;96.40;;;;;;5093570;28;19916;-68
2023/10/06 08:33:58;;;;;;;;;;;14.20;96.40;;;;;;5091498;28;20007;-68
2023/10/06 08:36:23;;;;;;;;;;;14.20;96.30;;;;;;5090634;28;19916;-68
2023/10/06 08:38:51;;;;;;;;;;;14.20;96.30;;;;;;5089065;28;19914;-68
2023/10/06 08:41:23;;;;;;;;;;;14.30;96.30;;;;;;5093599;28;19908;-68
2023/10/06 08:43:50;;;;;;;;;;;14.30;96.30;;;;;;5090131;28;19912;-68
2023/10/06 08:46:16;;;;;;;;;;;14.30;96.30;;;;;;5088754;28;19998;-68
2023/10/06 08:48:41;;;;;;;;;;;14.40;96.30;;;;;;5092147;28;20012;-68
2023/10/06 08:51:11;;;;;;;;;;;14.40;96.20;;;;;;5095468;28;19908;-68
2023/10/06 08:53:39;;;;;;;;;;;14.40;96.20;;;;;;5087740;28;20368;-68
2023/10/06 08:56:05;;;;;;;;;;;14.40;96.30;;;;;;5089743;28;20005;-68
2023/10/06 08:58:30;;;;;;;;;;;14.50;96.10;;;;;;5093411;28;19943;-68
2023/10/06 09:00:57;;;;;;;;;;;14.50;96.00;;;;;;5089139;28;19915;-68
2023/10/06 09:03:23;;;;;;;;;;;14.60;96.00;;;;;;5093397;28;19909;-68
2023/10/06 09:05:50;;;;;;;;;;;14.60;96.00;;;;;;5121321;27;20252;-68
2023/10/06 09:08:17;;;;;;;;;;;14.60;95.90;;;;;;5088839;28;19908;-68
2023/10/06 09:10:48;;;;;;;;;;;14.60;96.00;;;;;;5106868;28;19980;-68
2023/10/06 09:13:17;;;;;;;;;;;14.70;96.00;;;;;;5086130;28;20384;-69
2023/10/06 09:15:43;;;;;;;;;;;14.70;95.80;;;;;;5089668;28;19916;-68
2023/10/06 09:18:20;;;;;;;;;;;14.80;95.90;;;;;;5099974;28;19912;-68
2023/10/06 09:20:50;;;;;;;;;;;14.80;95.90;;;;;;5108789;28;20000;-68
2023/10/06 09:23:28;;;;;;;;;;;14.80;95.70;;;;;;5088183;28;19955;-68
2023/10/06 09:25:55;;;;;;;;;;;14.90;95.80;;;;;;5095452;28;19919;-68
2023/10/06 09:28:21;;;;;;;;;;;15.00;95.60;;;;;;5127069;27;20641;-70
2023/10/06 09:30:50;;;;;;;;;;;15.00;95.50;;;;;;5094162;28;19912;-71
2023/10/06 09:33:17;;;;;;;;;;;15.00;95.50;;;;;;5098858;28;20028;-71
2023/10/06 09:35:43;;;;;;;;;;;15.00;95.50;;;;;;5093562;28;19912;-71
2023/10/06 09:38:10;;;;;;;;;;;15.10;95.50;;;;;;5099136;28;20368;-71
2023/10/06 09:40:41;;;;;;;;;;;15.10;95.50;;;;;;5101107;28;19912;-71
2023/10/06 09:43:07;;;;;;;;;;;15.10;95.50;;;;;;5089657;28;19926;-70
2023/10/06 09:45:32;;;;;;;;;;;15.10;95.40;;;;;;5104106;28;19916;-70
2023/10/06 09:47:59;;;;;;;;;;;15.20;95.50;;;;;;5094816;28;20564;-71
2023/10/06 09:50:26;;;;;;;;;;;15.20;95.40;;;;;;5099992;28;19920;-71
2023/10/06 09:52:52;;;;;;;;;;;15.30;95.30;;;;;;5100731;28;20407;-71
2023/10/06 09:55:19;;;;;;;;;;;15.30;95.30;;;;;;5106565;28;19912;-71
2023/10/06 09:57:52;;;;;;;;;;;15.30;95.20;;;;;;5094235;28;19913;-71
2023/10/06 10:00:19;;;;;;;;;;;15.40;95.60;;;;;;5097573;28;19994;-71
2023/10/06 10:02:46;;;;;;;;;;;15.40;95.30;;;;;;5107970;28;19912;-71
2023/10/06 10:05:12;;;;;;;;;;;15.40;95.30;;;;;;5099837;28;19939;-71
2023/10/06 10:07:40;;;;;;;;;;;15.40;95.30;;;;;;5108156;28;20357;-71
2023/10/06 10:10:06;;;;;;;;;;;15.50;95.20;;;;;;5097214;28;19916;-71
2023/10/06 10:12:32;;;;;;;;;;;15.50;95.30;;;;;;5103276;28;19912;-71
2023/10/06 10:14:57;;;;;;;;;;;15.50;95.20;;;;;;5104817;28;19919;-71
2023/10/06 10:17:31;;;;;;;;;;;15.50;95.20;;;;;;5101991;28;19916;-71
2023/10/06 10:19:58;;;;;;;;;;;15.50;95.20;;;;;;5095193;28;19908;-71
2023/10/06 10:22:24;;;;;;;;;;;15.50;95.20;;;;;;5092589;28;19977;-71
2023/10/06 10:24:50;;;;;;;;;;;15.50;95.20;;;;;;5110707;28;19911;-71
2023/10/06 10:27:18;;;;;;;;;;;15.60;95.20;;;;;;5094351;28;20053;-71
2023/10/06 10:29:44;;;;;;;;;;;15.60;95.20;;;;;;5097600;28;20394;-71
2023/10/06 10:32:12;;;;;;;;;;;15.60;95.20;;;;;;5099676;28;20002;-71
2023/10/06 10:34:57;;;;;;;;;;;15.70;95.20;;;;;;5094152;28;20377;-71
2023/10/06 10:37:24;;;;;;;;;;;15.60;95.20;;;;;;5099939;28;20452;-71
2023/10/06 10:39:52;;;;;;;;;;;15.70;95.20;;;;;;5110705;27;19908;-70
2023/10/06 10:42:21;;;;;;;;;;;15.70;95.20;;;;;;5101799;28;19907;-70
2023/10/06 10:44:48;;;;;;;;;;;15.70;95.30;;;;;;5096626;27;20372;-70
2023/10/06 10:47:14;;;;;;;;;;;15.70;95.20;;;;;;5099043;28;19912;-70
2023/10/06 10:49:40;;;;;;;;;;;15.80;95.20;;;;;;5107415;28;19923;-70
2023/10/06 10:52:06;;;;;;;;;;;15.80;95.20;;;;;;5101659;28;19912;-70
2023/10/06 10:54:33;;;;;;;;;;;15.80;95.20;;;;;;5087436;28;19985;-70
2023/10/06 10:57:06;;;;;;;;;;;15.80;95.20;;;;;;5095123;28;20377;-70
2023/10/06 10:59:50;;;;;;;;;;;15.90;95.20;;;;;;5110479;28;19911;-70
2023/10/06 11:02:15;;;;;;;;;;;15.80;95.20;;;;;;5098971;28;19920;-70
2023/10/06 11:04:42;;;;;;;;;;;15.90;95.10;;;;;;5090508;28;19920;-71
2023/10/06 11:07:11;;;;;;;;;;;16.00;95.10;;;;;;5105804;28;20349;-70
2023/10/06 11:09:41;;;;;;;;;;;16.00;95.00;;;;;;5110385;28;20429;-70
2023/10/06 11:12:16;;;;;;;;;;;16.10;95.30;;;;;;5109766;28;19916;-70
2023/10/06 11:14:41;;;;;;;;;;;16.20;94.90;;;;;;5094721;28;19922;-70
2023/10/06 11:17:07;;;;;;;;;;;16.30;94.90;;;;;;5108389;28;19998;-71
2023/10/06 11:19:34;;;;;;;;;;;16.30;94.70;;;;;;5106271;28;20618;-70
2023/10/06 11:22:09;;;;;;;;;;;16.40;94.70;;;;;;5101639;28;19915;-70
2023/10/06 11:24:35;;;;;;;;;;;16.50;94.80;;;;;;5100801;28;19968;-70
2023/10/06 11:27:17;;;;;;;;;;;16.50;94.60;;;;;;5100678;28;20353;-70
2023/10/06 11:29:45;;;;;;;;;;;16.60;94.40;;;;;;5078833;28;19921;-70
2023/10/06 11:32:11;;;;;;;;;;;16.60;94.40;;;;;;5109369;28;19915;-70
2023/10/06 11:34:36;;;;;;;;;;;16.70;94.50;;;;;;5100231;28;19911;-70
2023/10/06 11:37:02;;;;;;;;;;;16.80;94.40;;;;;;5110151;28;19919;-70
2023/10/06 11:39:31;;;;;;;;;;;16.80;94.40;;;;;;5109415;28;19943;-70
2023/10/06 11:42:37;;;;;;;;;;;16.90;94.40;;;;;;5109331;28;19912;-71
2023/10/06 11:45:06;;;;;;;;;;;16.90;94.30;;;;;;5068739;28;19919;-71
2023/10/06 11:47:36;;;;;;;;;;;17.00;94.10;;;;;;5088033;28;19912;-71
2023/10/06 11:50:03;;;;;;;;;;;17.10;94.20;;;;;;5099791;28;19927;-71
2023/10/06 11:52:29;;;;;;;;;;;17.20;94.10;;;;;;5108666;28;19933;-70
2023/10/06 11:54:57;;;;;;;;;;;17.20;94.20;;;;;;5100368;28;19918;-71
2023/10/06 11:57:47;;;;;;;;;;;17.30;94.10;;;;;;5107919;28;19991;-70
2023/10/06 12:00:17;;;;;;;;;;;17.40;94.20;;;;;;5098045;28;19958;-70
2023/10/06 12:02:45;;;;;;;;;;;17.50;94.30;;;;;;5109211;28;19923;-70
2023/10/06 12:05:11;;;;;;;;;;;17.50;94.20;;;;;;5099929;28;19912;-71
2023/10/06 12:07:38;;;;;;;;;;;17.50;94.30;;;;;;5109090;28;19908;-70
2023/10/06 12:10:05;;;;;;;;;;;17.50;93.70;;;;;;5108779;28;19916;-71
2023/10/06 12:12:30;;;;;;;;;;;17.60;93.60;;;;;;5099840;28;20010;-71
2023/10/06 12:14:56;;;;;;;;;;;17.60;93.70;;;;;;5101318;28;20378;-71
2023/10/06 12:17:23;;;;;;;;;;;17.60;93.90;;;;;;5106992;28;19976;-71
2023/10/06 12:19:48;;;;;;;;;;;17.60;93.80;;;;;;5104689;28;19915;-71
2023/10/06 12:22:14;;;;;;;;;;;17.70;93.60;;;;;;5098982;28;20021;-70
2023/10/06 12:24:40;;;;;;;;;;;17.80;93.70;;;;;;5100932;28;19976;-70
2023/10/06 12:27:06;;;;;;;;;;;17.90;93.80;;;;;;5098058;28;19927;-71
2023/10/06 12:29:31;;;;;;;;;;;17.90;93.30;;;;;;5107834;28;19954;-71
2023/10/06 12:31:57;;;;;;;;;;;18.00;93.60;;;;;;5105584;28;20440;-71
2023/10/06 12:34:23;;;;;;;;;;;18.00;93.70;;;;;;5099229;28;20010;-70
2023/10/06 12:36:49;;;;;;;;;;;18.10;93.70;;;;;;5105841;28;20010;-70
2023/10/06 12:39:16;;;;;;;;;;;18.00;93.50;;;;;;5099099;28;19912;-71
2023/10/06 12:41:46;;;;;;;;;;;18.10;93.10;;;;;;5106520;28;19915;-71
2023/10/06 12:44:14;;;;;;;;;;;18.10;93.50;;;;;;5102891;28;19922;-70
2023/10/06 12:46:40;;;;;;;;;;;18.10;93.80;;;;;;5106728;28;20417;-71
2023/10/06 12:49:06;;;;;;;;;;;18.10;93.70;;;;;;5098970;28;19916;-70
2023/10/06 12:51:33;;;;;;;;;;;18.10;93.70;;;;;;5107202;28;19916;-70
2023/10/06 12:54:00;;;;;;;;;;;18.10;93.80;;;;;;5106720;28;19912;-71
2023/10/06 12:56:28;;;;;;;;;;;18.20;93.80;;;;;;5106780;28;20055;-71
2023/10/06 12:58:54;;;;;;;;;;;18.20;93.70;;;;;;5107912;28;20326;-70
2023/10/06 13:01:19;;;;;;;;;;;18.30;93.80;;;;;;5107427;28;19908;-70
2023/10/06 13:03:45;;;;;;;;;;;18.30;93.40;;;;;;5102884;28;20325;-70
2023/10/06 13:06:12;;;;;;;;;;;18.40;93.70;;;;;;5103733;28;19911;-71
2023/10/06 13:08:38;;;;;;;;;;;18.40;93.30;;;;;;5098893;28;19920;-71
2023/10/06 13:11:04;;;;;;;;;;;18.40;93.60;;;;;;5104824;28;19912;-71
2023/10/06 13:13:29;;;;;;;;;;;18.40;93.80;;;;;;5106184;28;19927;-71
2023/10/06 13:15:55;;;;;;;;;;;18.50;93.90;;;;;;5104256;28;19912;-71
2023/10/06 13:18:22;;;;;;;;;;;18.50;93.90;;;;;;5107097;27;20049;-70
2023/10/06 13:20:47;;;;;;;;;;;18.50;94.00;;;;;;5104143;28;19912;-70
2023/10/06 13:23:13;;;;;;;;;;;18.60;93.90;;;;;;5107085;28;19923;-70
2023/10/06 13:25:39;;;;;;;;;;;18.60;94.30;;;;;;5104873;28;19919;-70
2023/10/06 13:28:10;;;;;;;;;;;18.70;93.40;;;;;;5099309;28;19912;-71
2023/10/06 13:30:35;;;;;;;;;;;18.70;93.80;;;;;;5107498;28;20010;-71
2023/10/06 13:33:01;;;;;;;;;;;18.80;93.50;;;;;;5106818;28;20006;-71
2023/10/06 13:35:27;;;;;;;;;;;18.80;93.80;;;;;;5099157;28;20428;-70
2023/10/06 13:37:53;;;;;;;;;;;18.90;93.50;;;;;;5100588;28;19912;-70
2023/10/06 13:40:19;;;;;;;;;;;18.90;93.70;;;;;;5096558;28;19928;-70
2023/10/06 13:42:47;;;;;;;;;;;19.00;93.30;;;;;;5106712;28;19920;-70
2023/10/06 13:45:22;;;;;;;;;;;19.00;94.10;;;;;;5104608;28;19909;-71
2023/10/06 13:47:49;;;;;;;;;;;19.00;93.30;;;;;;5101694;28;20316;-71
2023/10/06 13:50:18;;;;;;;;;;;19.00;93.30;;;;;;5104648;28;19912;-71
2023/10/06 13:52:43;;;;;;;;;;;19.10;93.40;;;;;;5106678;28;19919;-70
2023/10/06 13:55:10;;;;;;;;;;;19.10;93.30;;;;;;5107736;28;19912;-70
2023/10/06 13:57:37;;;;;;;;;;;19.20;93.20;;;;;;5088051;28;19960;-71
2023/10/06 14:00:05;;;;;;;;;;;19.20;93.20;;;;;;5096406;28;20547;-71
2023/10/06 14:02:31;;;;;;;;;;;19.20;93.10;;;;;;5105949;28;19934;-71
2023/10/06 14:04:57;;;;;;;;;;;19.20;92.80;;;;;;5099058;28;19919;-71
2023/10/06 14:07:22;;;;;;;;;;;19.20;92.90;;;;;;5105124;28;19912;-71
2023/10/06 14:09:49;;;;;;;;;;;19.20;93.40;;;;;;5096091;28;20345;-71
2023/10/06 14:12:14;;;;;;;;;;;19.20;93.00;;;;;;5096475;28;19920;-71
2023/10/06 14:17:16;;;;;;;;;;;19.30;93.10;;;;;;5102822;28;20379;-71
2023/10/06 14:19:46;;;;;;;;;;;19.30;93.00;;;;;;5106749;28;20264;-71
2023/10/06 14:22:12;;;;;;;;;;;19.30;92.60;;;;;;5103617;28;19923;-71
2023/10/06 14:24:39;;;;;;;;;;;19.30;93.00;;;;;;5100343;28;19908;-71
2023/10/06 14:27:11;;;;;;;;;;;19.20;92.80;;;;;;5094243;28;20022;-71
2023/10/06 14:29:36;;;;;;;;;;;19.30;93.10;;;;;;5083197;28;19992;-71